createdAt,value
2022-12-03T00:02:19.079Z,7.60
2022-12-03T00:04:45.881Z,7.43
2022-12-03T00:07:12.596Z,7.43
2022-12-03T00:09:39.463Z,8.07
2022-12-03T00:12:06.356Z,7.80
2022-12-03T00:14:33.203Z,8.43
2022-12-03T00:17:00.020Z,6.75
2022-12-03T00:19:26.751Z,7.82
2022-12-03T00:21:53.511Z,7.25
2022-12-03T00:24:20.265Z,6.97
2022-12-03T00:26:47.031Z,7.32
2022-12-03T00:29:13.975Z,7.55
2022-12-03T00:31:42.063Z,6.28
2022-12-03T00:34:08.908Z,6.80
2022-12-03T00:36:35.638Z,6.95
2022-12-03T00:39:02.449Z,6.70
2022-12-03T00:41:29.268Z,7.05
2022-12-03T00:43:57.647Z,7.35
2022-12-03T00:46:27.578Z,7.40
2022-12-03T00:48:54.528Z,7.15
2022-12-03T00:51:21.306Z,6.80
2022-12-03T00:53:48.048Z,7.10
2022-12-03T00:56:14.884Z,6.78
2022-12-03T00:58:41.631Z,6.78
2022-12-03T01:01:08.399Z,6.50
2022-12-03T01:03:35.526Z,6.70
2022-12-03T01:06:02.509Z,6.95
2022-12-03T01:08:29.666Z,6.85
2022-12-03T01:10:56.430Z,6.22
2022-12-03T01:13:23.188Z,6.88
2022-12-03T01:15:50.018Z,7.25
2022-12-03T01:18:16.874Z,6.80
2022-12-03T01:20:43.703Z,6.53
2022-12-03T01:23:10.465Z,6.72
2022-12-03T01:25:37.310Z,6.72
2022-12-03T01:28:04.043Z,6.85
2022-12-03T01:30:50.782Z,7.13
2022-12-03T01:33:17.561Z,6.47
2022-12-03T01:35:44.271Z,6.18
2022-12-03T01:38:10.992Z,6.40
2022-12-03T01:40:37.775Z,6.57
2022-12-03T01:43:04.537Z,6.60
2022-12-03T01:45:31.316Z,6.15
2022-12-03T01:47:58.149Z,6.47
2022-12-03T01:50:32.889Z,6.60
2022-12-03T01:53:01.659Z,6.35
2022-12-03T01:55:29.331Z,6.88
2022-12-03T01:57:59.443Z,6.88
2022-12-03T02:00:27.515Z,6.57
2022-12-03T02:03:04.109Z,7.13
2022-12-03T02:05:32.945Z,6.65
2022-12-03T02:08:00.562Z,7.03
2022-12-03T02:10:32.420Z,6.90
2022-12-03T02:13:10.530Z,7.18
2022-12-03T02:15:39.597Z,7.22
2022-12-03T02:18:08.829Z,7.53
2022-12-03T02:20:51.538Z,7.28
2022-12-03T02:23:42.710Z,6.95
2022-12-03T02:26:09.941Z,6.47
2022-12-03T02:28:38.081Z,6.60
2022-12-03T02:31:06.745Z,7.22
2022-12-03T02:33:33.680Z,7.00
2022-12-03T02:36:03.814Z,6.50
2022-12-03T02:38:34.403Z,6.53
2022-12-03T02:41:06.270Z,7.45
2022-12-03T02:43:33.259Z,6.50
2022-12-03T02:46:02.498Z,6.65
2022-12-03T02:48:35.566Z,7.22
2022-12-03T02:51:08.975Z,7.10
2022-12-03T02:53:42.300Z,7.00
2022-12-03T02:56:11.887Z,6.38
2022-12-03T02:58:40.280Z,6.25
2022-12-03T03:01:08.406Z,6.70
2022-12-03T03:03:37.284Z,6.00
2022-12-03T03:06:06.787Z,5.90
2022-12-03T03:08:34.248Z,5.68
2022-12-03T03:11:02.373Z,6.85
2022-12-03T03:13:31.462Z,6.20
2022-12-03T03:15:59.078Z,6.35
2022-12-03T03:18:25.929Z,5.70
2022-12-03T03:20:53.588Z,5.63
2022-12-03T03:23:22.945Z,6.00
2022-12-03T03:26:00.278Z,5.45
2022-12-03T03:28:28.884Z,5.45
2022-12-03T03:30:56.777Z,5.38
2022-12-03T03:33:23.594Z,6.10
2022-12-03T03:35:50.838Z,5.43
2022-12-03T03:38:20.816Z,5.35
2022-12-03T03:40:49.914Z,5.93
2022-12-03T03:43:16.842Z,5.90
2022-12-03T03:45:44.297Z,5.82
2022-12-03T03:48:12.633Z,6.22
2022-12-03T03:50:39.815Z,6.28
2022-12-03T03:53:06.782Z,5.40
2022-12-03T03:55:34.478Z,5.93
2022-12-03T03:58:01.497Z,5.50
2022-12-03T04:00:30.202Z,5.32
2022-12-03T04:02:57.154Z,5.85
2022-12-03T04:05:24.785Z,5.47
2022-12-03T04:07:52.134Z,5.68
2022-12-03T04:10:37.793Z,5.85
2022-12-03T04:13:04.901Z,5.85
2022-12-03T04:15:32.075Z,5.82
2022-12-03T04:18:17.218Z,6.07
2022-12-03T04:20:44.156Z,5.97
2022-12-03T04:23:11.000Z,6.53
2022-12-03T04:25:56.477Z,6.28
2022-12-03T04:28:41.732Z,6.93
2022-12-03T04:31:27.439Z,6.68
2022-12-03T04:34:13.135Z,6.38
2022-12-03T04:36:39.986Z,6.10
2022-12-03T04:39:06.772Z,6.45
2022-12-03T04:41:33.501Z,5.60
2022-12-03T04:44:18.765Z,6.13
2022-12-03T04:46:45.626Z,5.85
2022-12-03T04:49:12.462Z,5.90
2022-12-03T04:51:39.258Z,5.95
2022-12-03T04:54:06.073Z,6.10
2022-12-03T04:56:32.829Z,6.25
2022-12-03T04:58:59.579Z,6.60
2022-12-03T05:01:26.392Z,6.63
2022-12-03T05:03:53.230Z,6.38
2022-12-03T05:06:20.028Z,7.10
2022-12-03T05:08:47.024Z,6.68
2022-12-03T05:11:13.822Z,7.03
2022-12-03T05:13:41.305Z,6.85
2022-12-03T05:16:10.089Z,6.47
2022-12-03T05:18:37.141Z,6.18
2022-12-03T05:21:03.971Z,6.10
2022-12-03T05:23:30.740Z,6.63
2022-12-03T05:25:57.503Z,6.70
2022-12-03T05:28:24.345Z,6.82
2022-12-03T05:30:52.076Z,6.93
2022-12-03T05:33:19.304Z,6.78
2022-12-03T05:35:46.835Z,7.15
2022-12-03T05:38:13.903Z,6.95
2022-12-03T05:40:40.714Z,6.80
2022-12-03T05:43:07.727Z,6.78
2022-12-03T05:45:37.200Z,7.20
2022-12-03T05:48:06.714Z,6.82
2022-12-03T05:50:35.780Z,6.57
2022-12-03T05:53:02.682Z,6.40
2022-12-03T05:55:29.719Z,6.80
2022-12-03T05:57:56.583Z,6.90
2022-12-03T06:00:26.289Z,7.25
2022-12-03T06:02:53.566Z,6.85
2022-12-03T06:05:21.727Z,7.40
2022-12-03T06:07:50.243Z,7.18
2022-12-03T06:10:20.635Z,7.50
2022-12-03T06:12:47.613Z,7.10
2022-12-03T06:15:15.135Z,7.60
2022-12-03T06:17:42.067Z,7.00
2022-12-03T06:20:13.507Z,7.38
2022-12-03T06:22:40.431Z,7.38
2022-12-03T06:25:07.661Z,6.47
2022-12-03T06:27:34.527Z,6.57
2022-12-03T06:30:02.096Z,7.32
2022-12-03T06:32:29.861Z,6.60
2022-12-03T06:34:56.742Z,7.20
2022-12-03T06:37:23.633Z,6.68
2022-12-03T06:39:50.363Z,6.55
2022-12-03T06:42:17.133Z,7.15
2022-12-03T06:44:43.918Z,6.63
2022-12-03T06:47:10.652Z,7.30
2022-12-03T06:49:37.382Z,7.55
2022-12-03T06:52:04.260Z,7.28
2022-12-03T06:54:31.244Z,7.75
2022-12-03T06:56:58.084Z,7.60
2022-12-03T06:59:25.009Z,7.50
2022-12-03T07:01:51.892Z,7.97
2022-12-03T07:04:18.739Z,8.13
2022-12-03T07:06:45.495Z,7.90
2022-12-03T07:09:12.266Z,7.93
2022-12-03T07:11:41.897Z,8.15
2022-12-03T07:14:11.090Z,8.50
2022-12-03T07:16:39.209Z,7.68
2022-12-03T07:19:07.046Z,8.40
2022-12-03T07:21:34.094Z,8.55
2022-12-03T07:24:01.195Z,7.82
2022-12-03T07:26:28.059Z,7.88
2022-12-03T07:28:54.901Z,7.20
2022-12-03T07:31:21.744Z,8.10
2022-12-03T07:33:50.915Z,8.48
2022-12-03T07:36:17.766Z,8.02
2022-12-03T07:38:44.846Z,9.27
2022-12-03T07:41:11.894Z,8.40
2022-12-03T07:43:38.695Z,8.88
2022-12-03T07:46:05.610Z,9.43
2022-12-03T07:48:32.392Z,8.80
2022-12-03T07:50:59.272Z,8.52
2022-12-03T07:53:26.080Z,9.40
2022-12-03T07:55:53.050Z,8.98
2022-12-03T07:58:19.834Z,8.75
2022-12-03T08:00:46.797Z,8.13
2022-12-03T08:03:13.657Z,7.88
2022-12-03T08:05:40.533Z,8.50
2022-12-03T08:08:07.346Z,7.70
2022-12-03T08:10:34.223Z,7.45
2022-12-03T08:13:02.360Z,8.02
2022-12-03T08:15:35.354Z,8.13
2022-12-03T08:18:16.667Z,7.93
2022-12-03T08:20:45.636Z,8.65
2022-12-03T08:23:23.211Z,8.63
2022-12-03T08:25:51.865Z,9.68
2022-12-03T08:28:29.079Z,8.68
2022-12-03T08:31:26.899Z,8.40
2022-12-03T08:34:15.864Z,8.10
2022-12-03T08:36:43.727Z,7.93
2022-12-03T08:39:13.418Z,7.82
2022-12-03T08:41:58.615Z,6.65
2022-12-03T08:44:40.875Z,6.85
2022-12-03T08:47:13.881Z,6.97
2022-12-03T08:49:41.069Z,6.85
2022-12-03T08:52:18.708Z,6.50
2022-12-03T08:54:53.114Z,6.43
2022-12-03T08:57:31.656Z,6.07
2022-12-03T09:00:04.030Z,6.65
2022-12-03T09:02:34.009Z,6.75
2022-12-03T09:05:27.275Z,5.85
2022-12-03T09:07:54.130Z,5.68
2022-12-03T09:10:21.197Z,5.82
2022-12-03T09:12:47.976Z,5.47
2022-12-03T09:15:14.840Z,5.63
2022-12-03T09:17:41.621Z,5.53
2022-12-03T09:20:09.247Z,5.43
2022-12-03T09:22:36.099Z,4.93
2022-12-03T09:25:02.883Z,5.18
2022-12-03T09:27:29.778Z,5.25
2022-12-03T09:29:56.566Z,5.22
2022-12-03T09:32:23.393Z,5.07
2022-12-03T09:34:50.236Z,5.00
2022-12-03T09:37:16.999Z,4.93
2022-12-03T09:39:43.865Z,5.13
2022-12-03T09:42:11.378Z,5.38
2022-12-03T09:44:38.883Z,4.55
2022-12-03T09:47:06.639Z,4.30
2022-12-03T09:49:37.088Z,4.82
2022-12-03T09:52:06.135Z,5.00
2022-12-03T09:54:33.678Z,4.63
2022-12-03T09:57:04.066Z,5.25
2022-12-03T09:59:33.167Z,4.72
2022-12-03T10:02:00.888Z,4.32
2022-12-03T10:04:28.983Z,4.60
2022-12-03T10:06:58.218Z,4.57
2022-12-03T10:09:28.140Z,4.82
2022-12-03T10:11:57.172Z,4.55
2022-12-03T10:14:24.127Z,5.13
2022-12-03T10:16:51.111Z,4.60
2022-12-03T10:19:31.532Z,4.68
2022-12-03T10:21:58.662Z,4.80
2022-12-03T10:24:28.877Z,5.05
2022-12-03T10:27:04.106Z,5.00
2022-12-03T10:29:34.919Z,4.57
2022-12-03T10:32:10.436Z,4.40
2022-12-03T10:34:41.885Z,4.68
2022-12-03T10:37:14.546Z,5.10
2022-12-03T10:40:01.947Z,5.07
2022-12-03T10:42:35.279Z,5.07
2022-12-03T10:45:22.915Z,4.82
2022-12-03T10:48:16.799Z,4.90
2022-12-03T10:50:51.374Z,4.70
2022-12-03T10:53:20.165Z,4.72
2022-12-03T10:55:49.500Z,4.47
2022-12-03T10:58:24.463Z,4.72
2022-12-03T11:00:53.928Z,5.05
2022-12-03T11:03:29.956Z,4.80
2022-12-03T11:05:59.806Z,5.25
2022-12-03T11:08:31.196Z,4.55
2022-12-03T11:11:01.127Z,5.05
2022-12-03T11:13:29.222Z,4.90
2022-12-03T11:15:56.515Z,4.80
2022-12-03T11:18:38.634Z,4.32
2022-12-03T11:21:11.415Z,4.65
2022-12-03T11:23:44.438Z,4.78
2022-12-03T11:26:29.824Z,4.72
2022-12-03T11:28:58.704Z,4.50
2022-12-03T11:31:43.840Z,4.32
2022-12-03T11:34:21.013Z,4.10
2022-12-03T11:39:52.967Z,4.20
2022-12-03T11:42:25.965Z,4.35
2022-12-03T11:45:05.416Z,4.60
2022-12-03T11:47:45.417Z,4.25
2022-12-03T11:50:18.449Z,4.03
2022-12-03T11:52:48.406Z,4.65
2022-12-03T11:55:30.356Z,4.80
2022-12-03T11:58:02.031Z,4.45
2022-12-03T12:00:30.407Z,3.92
2022-12-03T12:02:59.465Z,4.30
2022-12-03T12:05:29.044Z,4.57
2022-12-03T12:07:56.774Z,4.65
2022-12-03T12:10:44.782Z,4.72
2022-12-03T12:13:30.435Z,4.72
2022-12-03T12:16:10.888Z,4.10
2022-12-03T12:18:38.984Z,4.22
2022-12-03T12:21:43.420Z,4.55
2022-12-03T12:24:41.245Z,4.35
2022-12-03T12:27:15.415Z,3.85
2022-12-03T12:29:45.728Z,4.20
2022-12-03T12:32:18.694Z,4.40
2022-12-03T12:34:50.751Z,4.00
2022-12-03T12:37:35.402Z,4.70
2022-12-03T12:40:11.786Z,4.68
2022-12-03T12:42:43.646Z,4.40
2022-12-03T12:45:15.579Z,4.45
2022-12-03T12:47:49.917Z,4.00
2022-12-03T12:50:18.512Z,4.43
2022-12-03T12:52:52.356Z,3.85
2022-12-03T12:55:20.574Z,4.40
2022-12-03T12:57:48.897Z,4.30
2022-12-03T13:00:23.446Z,4.07
2022-12-03T13:03:02.424Z,4.63
2022-12-03T13:05:41.303Z,3.60
2022-12-03T13:08:25.132Z,4.30
2022-12-03T13:10:54.782Z,4.25
2022-12-03T13:13:43.541Z,4.53
2022-12-03T13:16:28.631Z,4.20
2022-12-03T13:18:57.409Z,4.15
2022-12-03T13:21:41.306Z,4.00
2022-12-03T13:24:32.542Z,4.07
2022-12-03T13:27:04.951Z,3.90
2022-12-03T13:29:32.094Z,3.67
2022-12-03T13:32:02.008Z,4.65
2022-12-03T13:34:33.542Z,4.07
2022-12-03T13:37:01.907Z,3.95
2022-12-03T13:39:28.877Z,4.28
2022-12-03T13:42:14.303Z,4.55
2022-12-03T13:44:49.708Z,4.25
2022-12-03T13:47:21.014Z,4.17
2022-12-03T13:49:56.786Z,4.15
2022-12-03T13:52:27.203Z,3.75
2022-12-03T13:54:56.088Z,4.25
2022-12-03T13:57:22.977Z,4.53
2022-12-03T13:59:49.712Z,4.25
2022-12-03T14:02:16.647Z,4.45
2022-12-03T14:04:43.567Z,4.63
2022-12-03T14:07:10.313Z,4.38
2022-12-03T14:09:37.180Z,4.88
2022-12-03T14:12:22.769Z,4.57
2022-12-03T14:14:49.576Z,4.63
2022-12-03T14:17:16.491Z,4.50
2022-12-03T14:19:43.526Z,4.22
2022-12-03T14:22:10.396Z,4.43
2022-12-03T14:24:39.865Z,4.47
2022-12-03T14:27:06.680Z,4.50
2022-12-03T14:29:33.637Z,4.60
2022-12-03T14:32:00.503Z,4.60
2022-12-03T14:34:27.361Z,4.75
2022-12-03T14:36:54.181Z,4.35
2022-12-03T14:39:21.303Z,4.50
2022-12-03T14:42:09.757Z,4.30
2022-12-03T14:44:36.772Z,4.10
2022-12-03T14:47:03.728Z,4.75
2022-12-03T14:49:30.610Z,4.75
2022-12-03T14:51:57.481Z,4.68
2022-12-03T14:54:24.385Z,4.65
2022-12-03T14:56:51.141Z,4.50
2022-12-03T14:59:20.689Z,5.22
2022-12-03T15:01:51.705Z,4.45
2022-12-03T15:04:19.392Z,4.57
2022-12-03T15:06:46.382Z,4.72
2022-12-03T15:09:14.218Z,4.60
2022-12-03T15:11:45.947Z,4.55
2022-12-03T15:14:13.434Z,5.15
2022-12-03T15:16:40.913Z,5.05
2022-12-03T15:19:07.803Z,4.70
2022-12-03T15:21:35.173Z,4.65
2022-12-03T15:24:03.057Z,4.40
2022-12-03T15:26:30.287Z,4.55
2022-12-03T15:28:58.046Z,4.72
2022-12-03T15:31:24.925Z,4.35
2022-12-03T15:33:51.816Z,4.47
2022-12-03T15:36:18.559Z,4.80
2022-12-03T15:38:45.342Z,4.72
2022-12-03T15:41:21.426Z,4.45
2022-12-03T15:46:15.899Z,4.97
2022-12-03T15:48:42.824Z,5.07
2022-12-03T15:51:09.969Z,4.60
2022-12-03T15:53:37.291Z,4.78
2022-12-03T15:56:07.594Z,4.70
2022-12-03T15:58:34.767Z,4.82
2022-12-03T16:01:01.716Z,4.55
2022-12-03T16:03:28.792Z,5.13
2022-12-03T16:05:55.618Z,4.57
2022-12-03T16:08:22.639Z,4.75
2022-12-03T16:10:49.642Z,4.90
2022-12-03T16:13:16.422Z,4.88
2022-12-03T16:15:43.534Z,4.78
2022-12-03T16:18:11.084Z,5.13
2022-12-03T16:20:38.327Z,5.10
2022-12-03T16:23:05.159Z,4.60
2022-12-03T16:25:31.971Z,5.22
2022-12-03T16:27:58.827Z,4.72
2022-12-03T16:30:26.067Z,4.65
2022-12-03T16:32:52.918Z,4.90
2022-12-03T16:35:19.795Z,4.95
2022-12-03T16:37:46.703Z,4.78
2022-12-03T16:40:13.603Z,5.63
2022-12-03T16:42:41.308Z,4.93
2022-12-03T16:45:09.697Z,4.95
2022-12-03T16:47:36.498Z,4.75
2022-12-03T16:50:07.628Z,4.85
2022-12-03T16:52:35.868Z,4.65
2022-12-03T16:55:02.859Z,5.22
2022-12-03T16:57:33.720Z,4.95
2022-12-03T17:00:01.185Z,5.18
2022-12-03T17:02:28.258Z,5.00
2022-12-03T17:04:55.308Z,5.38
2022-12-03T17:07:22.123Z,4.88
2022-12-03T17:09:49.195Z,5.35
2022-12-03T17:12:16.276Z,5.20
2022-12-03T17:14:43.318Z,4.90
2022-12-03T17:17:10.117Z,5.18
2022-12-03T17:19:37.003Z,4.57
2022-12-03T17:22:03.948Z,5.03
2022-12-03T17:24:30.774Z,4.88
2022-12-03T17:26:57.612Z,5.03
2022-12-03T17:29:24.457Z,4.90
2022-12-03T17:31:54.091Z,4.78
2022-12-03T17:34:20.937Z,5.00
2022-12-03T17:36:47.696Z,4.70
2022-12-03T17:39:14.666Z,5.38
2022-12-03T17:41:41.853Z,4.88
2022-12-03T17:44:11.395Z,4.80
2022-12-03T17:46:39.956Z,4.68
2022-12-03T17:49:06.908Z,5.20
2022-12-03T17:51:33.752Z,5.15
2022-12-03T17:54:00.610Z,4.70
2022-12-03T17:56:27.417Z,5.50
2022-12-03T17:58:54.324Z,4.78
2022-12-03T18:01:22.030Z,5.15
2022-12-03T18:03:49.015Z,4.80
2022-12-03T18:06:15.960Z,5.45
2022-12-03T18:08:42.843Z,5.05
2022-12-03T18:11:09.660Z,4.90
2022-12-03T18:13:36.461Z,4.93
2022-12-03T18:16:03.318Z,5.82
2022-12-03T18:18:30.217Z,5.50
2022-12-03T18:21:01.942Z,5.63
2022-12-03T18:23:29.179Z,6.05
2022-12-03T18:25:56.654Z,6.35
2022-12-03T18:28:23.583Z,5.32
2022-12-03T18:30:52.833Z,5.95
2022-12-03T18:33:21.518Z,5.70
2022-12-03T18:35:48.463Z,5.32
2022-12-03T18:38:17.346Z,5.07
2022-12-03T18:40:45.872Z,5.05
2022-12-03T18:43:14.348Z,5.50
2022-12-03T18:45:41.863Z,4.97
2022-12-03T18:48:15.625Z,5.60
2022-12-03T18:50:43.932Z,5.35
2022-12-03T18:53:12.708Z,5.32
2022-12-03T18:55:40.755Z,6.45
2022-12-03T18:58:07.619Z,5.10
2022-12-03T19:00:35.763Z,5.55
2022-12-03T19:03:04.126Z,5.65
2022-12-03T19:05:34.384Z,5.43
2022-12-03T19:08:02.035Z,5.60
2022-12-03T19:10:29.330Z,5.55
2022-12-03T19:12:57.048Z,5.20
2022-12-03T19:15:24.152Z,5.20
2022-12-03T19:17:51.725Z,4.97
2022-12-03T19:20:18.755Z,4.65
2022-12-03T19:22:46.214Z,5.13
2022-12-03T19:25:12.993Z,5.32
2022-12-03T19:27:39.812Z,4.68
2022-12-03T19:30:07.406Z,4.25
2022-12-03T19:32:35.171Z,4.82
2022-12-03T19:35:05.022Z,5.28
2022-12-03T19:37:35.285Z,4.82
2022-12-03T19:40:02.119Z,4.45
2022-12-03T19:42:34.397Z,4.47
2022-12-03T19:45:01.324Z,4.30
2022-12-03T19:47:28.509Z,4.40
2022-12-03T19:49:56.076Z,4.32
2022-12-03T19:52:23.607Z,4.25
2022-12-03T19:54:50.507Z,4.07
2022-12-03T19:57:23.077Z,4.30
2022-12-03T19:59:51.097Z,4.10
2022-12-03T20:02:18.076Z,4.18
2022-12-03T20:04:44.905Z,4.13
2022-12-03T20:07:11.716Z,3.90
2022-12-03T20:09:38.506Z,3.97
2022-12-03T20:12:05.895Z,4.50
2022-12-03T20:14:32.961Z,4.07
2022-12-03T20:16:59.937Z,4.43
2022-12-03T20:19:26.770Z,3.83
2022-12-03T20:21:58.995Z,3.92
2022-12-03T20:24:29.513Z,4.13
2022-12-03T20:26:56.308Z,4.03
2022-12-03T20:29:23.112Z,3.95
2022-12-03T20:31:49.949Z,4.22
2022-12-03T20:34:17.006Z,4.00
2022-12-03T20:36:44.240Z,4.30
2022-12-03T20:39:11.249Z,4.03
2022-12-03T20:41:38.492Z,4.13
2022-12-03T20:44:07.417Z,3.53
2022-12-03T20:46:34.589Z,3.72
2022-12-03T20:49:01.460Z,3.70
2022-12-03T20:51:31.087Z,4.10
2022-12-03T20:53:59.746Z,4.03
2022-12-03T20:56:31.115Z,4.57
2022-12-03T20:59:04.840Z,5.47
2022-12-03T21:01:32.870Z,4.82
2022-12-03T21:03:59.879Z,4.78
2022-12-03T21:06:29.806Z,4.75
2022-12-03T21:08:58.933Z,4.93
2022-12-03T21:11:29.638Z,4.88
2022-12-03T21:13:58.716Z,4.90
2022-12-03T21:16:59.151Z,4.38
2022-12-03T21:19:22.702Z,4.68
2022-12-03T21:21:50.159Z,4.40
2022-12-03T21:24:17.023Z,4.50
2022-12-03T21:26:43.839Z,4.22
2022-12-03T21:29:10.720Z,4.32
2022-12-03T21:31:39.718Z,4.45
2022-12-03T21:34:08.441Z,3.97
2022-12-03T21:36:36.105Z,4.05
2022-12-03T21:39:05.158Z,3.97
2022-12-03T21:41:32.078Z,3.58
2022-12-03T21:43:59.000Z,4.13
2022-12-03T21:47:10.471Z,3.92
2022-12-03T21:49:13.018Z,4.50
2022-12-03T21:51:39.945Z,3.38
2022-12-03T21:54:07.274Z,3.72
2022-12-03T21:56:34.046Z,3.85
2022-12-03T21:59:00.784Z,4.38
2022-12-03T22:01:28.328Z,3.90
2022-12-03T22:03:55.409Z,4.03
2022-12-03T22:06:22.703Z,4.07
2022-12-03T22:08:50.563Z,3.90
2022-12-03T22:11:23.023Z,3.90
2022-12-03T22:13:50.321Z,4.00
2022-12-03T22:16:19.804Z,4.18
2022-12-03T22:18:47.595Z,3.78
2022-12-03T22:21:19.723Z,4.25
2022-12-03T22:23:47.685Z,3.88
2022-12-03T22:26:16.848Z,3.83
2022-12-03T22:28:47.959Z,4.40
2022-12-03T22:31:16.664Z,4.30
2022-12-03T22:33:45.581Z,4.00
2022-12-03T22:36:19.763Z,4.45
2022-12-03T22:38:48.131Z,4.07
2022-12-03T22:41:15.651Z,4.20
2022-12-03T22:43:42.853Z,4.40
2022-12-03T22:46:13.248Z,4.10
2022-12-03T22:48:46.593Z,3.70
2022-12-03T22:51:18.937Z,4.22
2022-12-03T22:53:45.867Z,4.20
2022-12-03T22:56:12.887Z,3.75
2022-12-03T22:58:41.082Z,3.58
2022-12-03T23:01:08.242Z,3.97
2022-12-03T23:03:35.888Z,4.00
2022-12-03T23:06:09.451Z,3.83
2022-12-03T23:08:36.283Z,3.90
2022-12-03T23:11:03.038Z,4.50
2022-12-03T23:13:31.424Z,3.63
2022-12-03T23:15:58.744Z,4.22
2022-12-03T23:18:25.612Z,3.85
2022-12-03T23:20:54.202Z,4.03
2022-12-03T23:23:23.973Z,3.90
2022-12-03T23:26:09.033Z,4.18
2022-12-03T23:28:38.473Z,3.97
2022-12-03T23:31:06.229Z,3.70
2022-12-03T23:33:38.125Z,4.22
2022-12-03T23:36:06.412Z,4.55
2022-12-03T23:38:33.225Z,3.88
2022-12-03T23:41:08.442Z,3.80
2022-12-03T23:43:35.403Z,3.88
2022-12-03T23:46:03.942Z,3.65
2022-12-03T23:48:30.882Z,3.60
2022-12-03T23:50:57.741Z,4.10
2022-12-03T23:53:24.600Z,3.53
2022-12-03T23:55:51.442Z,3.80
2022-12-03T23:58:18.148Z,4.13
